Time;durP1;ratioP1;P1;durP2;ratioP2;P2;SDS_P1;SDS_P2;PMS_P1;PMS_P2;Temp;Humidity;BMP_temperature;BMP_pressure;BME280_temperature;BME280_humidity;BME280_pressure;Samples;Min_cycle;Max_cycle;Signal;HPM_P1;HPM_P2
2021/11/18 00:06:30;;;;;;;34.80;15.70;;;;;;;6.35;100.00;100523.19;714248;1203;114027;-75
2021/11/18 00:21:40;;;;;;;31.60;14.80;;;;;;;6.31;100.00;100526.02;713670;1177;115431;-75
2021/11/18 00:36:42;;;;;;;34.67;15.97;;;;;;;6.42;100.00;100546.14;713712;1174;113793;-76
2021/11/18 00:51:45;;;;;;;39.25;18.15;;;;;;;6.49;100.00;100543.96;713780;1177;114538;-75
2021/11/18 01:06:48;;;;;;;40.90;18.23;;;;;;;6.69;100.00;100563.50;713886;1178;114038;-74
2021/11/18 01:21:51;;;;;;;37.13;16.93;;;;;;;6.72;100.00;100572.86;713812;1203;115111;-75
2021/11/18 01:36:54;;;;;;;53.38;22.00;;;;;;;6.91;100.00;100568.07;714036;1190;114380;-75
2021/11/18 01:52:00;;;;;;;122.88;34.58;;;;;;;6.94;100.00;100561.81;714771;1203;113941;-76
2021/11/18 02:07:08;;;;;;;69.35;23.25;;;;;;;7.00;100.00;100561.41;713699;1199;114569;-75
2021/11/18 02:22:11;;;;;;;72.83;28.48;;;;;;;7.06;100.00;100555.78;715017;1196;115177;-75
2021/11/18 02:37:14;;;;;;;65.98;26.45;;;;;;;7.12;100.00;100549.29;714386;1200;114014;-75
2021/11/18 02:52:25;;;;;;;52.85;21.25;;;;;;;7.18;100.00;100574.97;713697;1194;114621;-75
2021/11/18 03:07:27;;;;;;;41.57;19.10;;;;;;;7.42;100.00;100576.81;713680;1200;114432;-76
2021/11/18 03:22:31;;;;;;;36.98;17.00;;;;;;;7.44;100.00;100580.98;713793;1175;114177;-75
2021/11/18 03:37:34;;;;;;;34.90;15.40;;;;;;;7.32;100.00;100572.23;713774;1174;113936;-74
2021/11/18 03:52:36;;;;;;;32.25;15.68;;;;;;;7.42;100.00;100579.42;713770;1200;115331;-74
2021/11/18 04:07:42;;;;;;;36.75;15.80;;;;;;;7.52;100.00;100595.26;713919;1205;114074;-75
2021/11/18 04:22:47;;;;;;;55.60;21.68;;;;;;;7.51;100.00;100586.60;713784;1205;115451;-74
2021/11/18 04:37:49;;;;;;;39.68;16.80;;;;;;;7.30;100.00;100620.26;713948;1180;114595;-74
2021/11/18 04:52:52;;;;;;;36.30;17.60;;;;;;;7.41;100.00;100622.94;713825;1203;114484;-74
2021/11/18 05:07:55;;;;;;;33.83;15.63;;;;;;;7.45;100.00;100627.00;713826;1184;114180;-75
2021/11/18 05:22:57;;;;;;;32.03;13.05;;;;;;;7.44;100.00;100624.50;714005;1175;114458;-75
2021/11/18 05:38:01;;;;;;;37.10;17.30;;;;;;;7.19;100.00;100648.84;714264;1200;113522;-75
2021/11/18 05:53:03;;;;;;;83.45;48.75;;;;;;;7.32;100.00;100665.34;713929;1204;114289;-75
2021/11/18 06:08:06;;;;;;;36.20;16.30;;;;;;;7.18;100.00;100662.83;713833;1177;114292;-75
2021/11/18 06:23:10;;;;;;;29.50;13.75;;;;;;;7.24;100.00;100675.47;713801;1199;115565;-75
2021/11/18 06:38:12;;;;;;;31.80;13.58;;;;;;;7.30;100.00;100680.28;713825;1200;115977;-75
2021/11/18 06:53:15;;;;;;;33.70;14.77;;;;;;;7.19;100.00;100682.77;713624;1202;114831;-75
2021/11/18 07:08:18;;;;;;;37.58;16.70;;;;;;;7.39;100.00;100686.63;714193;1177;114387;-73
2021/11/18 07:23:23;;;;;;;47.53;20.00;;;;;;;7.59;100.00;100714.00;714236;1174;114003;-74
2021/11/18 07:38:28;;;;;;;43.95;21.98;;;;;;;7.68;100.00;100725.58;714062;1177;114197;-75
2021/11/18 07:53:31;;;;;;;101.68;33.35;;;;;;;7.74;100.00;100733.82;714380;1200;115224;-70
2021/11/18 08:08:34;;;;;;;55.27;29.87;;;;;;;7.86;100.00;100728.70;714711;1200;114718;-71
2021/11/18 08:23:36;;;;;;;36.83;16.90;;;;;;;8.13;100.00;100752.89;714419;1200;114336;-73
2021/11/18 08:38:41;;;;;;;44.00;15.90;;;;;;;7.98;100.00;100757.42;714116;1200;114081;-74
2021/11/18 08:53:46;;;;;;;27.80;10.65;;;;;;;8.07;100.00;100742.86;714437;1176;114507;-72
2021/11/18 09:08:48;;;;;;;21.30;9.00;;;;;;;8.31;100.00;100731.61;714593;1200;113847;-72
2021/11/18 09:23:56;;;;;;;16.95;7.63;;;;;;;8.59;100.00;100753.19;714551;1199;114176;-72
2021/11/18 09:39:00;;;;;;;;;;;;;;;8.52;100.00;100741.52;714322;1206;113893;-70
2021/11/18 09:54:22;;;;;;;18.40;8.18;;;;;;;8.74;100.00;100725.11;714646;1199;101643;-70
2021/11/18 10:09:28;;;;;;;16.98;8.73;;;;;;;8.74;100.00;100732.95;714682;1202;114004;-70
2021/11/18 10:24:38;;;;;;;18.60;6.93;;;;;;;8.81;100.00;100719.28;714452;1188;113813;-73
2021/11/18 10:39:53;;;;;;;15.65;8.35;;;;;;;9.05;100.00;100739.34;714304;1200;114441;-73
2021/11/18 10:55:01;;;;;;;16.83;9.20;;;;;;;9.22;100.00;100747.73;714256;1202;114645;-73
2021/11/18 11:10:08;;;;;;;21.77;8.25;;;;;;;9.15;100.00;100726.42;714783;1200;114034;-72
2021/11/18 11:25:35;;;;;;;13.68;6.85;;;;;;;9.10;100.00;100708.44;715138;1200;114338;-72
2021/11/18 11:41:16;;;;;;;15.57;7.83;;;;;;;9.34;100.00;100715.38;714454;1200;113234;-73
2021/11/18 11:56:40;;;;;;;22.05;7.58;;;;;;;9.33;100.00;100703.27;714048;1200;113927;-73
2021/11/18 12:11:52;;;;;;;20.57;10.10;;;;;;;9.01;100.00;100675.11;714285;1199;114517;-72
2021/11/18 12:26:56;;;;;;;24.05;8.20;;;;;;;9.06;100.00;100654.66;714623;1205;113937;-73
2021/11/18 12:42:23;;;;;;;30.18;13.85;;;;;;;9.18;100.00;100654.69;714041;1201;114408;-70
2021/11/18 12:57:29;;;;;;;17.13;7.65;;;;;;;9.14;100.00;100685.48;713922;1201;114374;-71
2021/11/18 13:12:34;;;;;;;19.73;10.67;;;;;;;9.16;100.00;100676.58;713897;1203;114341;-72
2021/11/18 13:27:46;;;;;;;24.53;11.65;;;;;;;9.22;100.00;100667.41;713761;1199;114077;-72
2021/11/18 13:43:00;;;;;;;25.23;11.67;;;;;;;9.28;100.00;100680.04;713944;1203;115536;-71
2021/11/18 13:58:14;;;;;;;23.95;9.25;;;;;;;9.16;100.00;100686.22;713983;1200;114888;-71
2021/11/18 14:13:41;;;;;;;17.20;7.70;;;;;;;9.04;100.00;100685.36;714690;1200;114530;-71
2021/11/18 14:28:53;;;;;;;18.00;8.13;;;;;;;8.89;100.00;100673.42;713742;1200;114172;-71
2021/11/18 14:44:09;;;;;;;23.23;9.95;;;;;;;8.74;100.00;100685.88;713675;1199;114295;-71
2021/11/18 14:59:14;;;;;;;19.43;7.33;;;;;;;8.64;100.00;100644.70;713777;1193;113762;-71
2021/11/18 15:14:17;;;;;;;25.87;12.40;;;;;;;8.73;100.00;100658.86;714164;1202;113990;-71
2021/11/18 15:29:21;;;;;;;23.85;10.10;;;;;;;8.87;100.00;100668.31;713951;1200;114421;-71
2021/11/18 15:44:24;;;;;;;25.15;11.18;;;;;;;8.96;100.00;100659.77;714145;1199;114383;-71
2021/11/18 15:59:27;;;;;;;29.45;16.85;;;;;;;8.98;100.00;100662.27;714162;1203;114082;-71
2021/11/18 16:14:33;;;;;;;37.78;16.03;;;;;;;8.97;100.00;100629.19;715201;1176;113860;-70
2021/11/18 16:29:38;;;;;;;73.90;27.78;;;;;;;9.11;100.00;100630.77;714159;1203;114112;-71
2021/11/18 16:44:42;;;;;;;29.70;12.97;;;;;;;9.22;100.00;100603.77;713801;1199;115049;-70
2021/11/18 16:59:46;;;;;;;31.98;12.98;;;;;;;9.13;100.00;100595.67;715266;1200;114076;-73
2021/11/18 17:14:49;;;;;;;43.78;17.60;;;;;;;9.09;100.00;100604.72;714136;1199;114022;-74
2021/11/18 17:30:17;;;;;;;21.55;10.90;;;;;;;9.10;100.00;100588.04;713944;1175;113689;-72
2021/11/18 17:45:33;;;;;;;39.00;14.68;;;;;;;9.03;100.00;100586.01;714476;1203;115637;-74
2021/11/18 18:00:49;;;;;;;23.80;12.27;;;;;;;9.05;100.00;100566.63;714246;1199;115220;-73
2021/11/18 18:15:53;;;;;;;87.93;30.03;;;;;;;9.00;100.00;100534.77;714059;1175;114853;-73
2021/11/18 18:30:59;;;;;;;29.48;14.38;;;;;;;8.94;100.00;100535.23;713874;1177;114214;-71
2021/11/18 18:46:05;;;;;;;53.37;24.17;;;;;;;8.94;100.00;100519.53;713870;1202;114902;-71
2021/11/18 19:01:19;;;;;;;42.50;19.15;;;;;;;9.14;100.00;100478.72;713934;1199;114461;-73
2021/11/18 19:16:28;;;;;;;40.23;14.55;;;;;;;8.98;100.00;100464.21;713983;1202;114838;-72
2021/11/18 19:32:07;;;;;;;30.18;14.55;;;;;;;9.12;100.00;100431.73;713987;1187;114537;-73
2021/11/18 19:47:14;;;;;;;37.35;13.80;;;;;;;9.22;100.00;100396.97;713999;1178;115449;-71
2021/11/18 20:02:19;;;;;;;38.08;14.18;;;;;;;9.26;100.00;100353.88;713912;1203;114885;-72
2021/11/18 20:17:24;;;;;;;32.40;13.93;;;;;;;9.33;100.00;100334.11;713912;1175;113996;-71
2021/11/18 20:32:36;;;;;;;26.28;13.03;;;;;;;9.34;100.00;100335.75;713822;1200;114540;-71
2021/11/18 20:47:39;;;;;;;30.50;13.20;;;;;;;9.45;100.00;100329.66;713934;1175;113842;-71
2021/11/18 21:02:43;;;;;;;25.65;12.73;;;;;;;9.37;100.00;100306.72;715133;1199;113991;-71
2021/11/18 21:17:45;;;;;;;22.97;11.87;;;;;;;9.23;100.00;100276.42;714268;1178;114044;-72
2021/11/18 21:32:48;;;;;;;49.88;20.20;;;;;;;9.04;100.00;100250.11;714472;1200;115304;-72
2021/11/18 21:48:16;;;;;;;64.07;23.47;;;;;;;8.97;100.00;100234.08;715016;1174;114646;-73
2021/11/18 22:03:21;;;;;;;52.05;21.88;;;;;;;9.04;100.00;100206.47;714946;1188;115440;-71
2021/11/18 22:18:25;;;;;;;36.25;17.88;;;;;;;9.14;100.00;100199.48;715063;1189;113848;-72
2021/11/18 22:33:30;;;;;;;30.45;17.18;;;;;;;9.18;100.00;100171.28;714786;1195;113819;-71
2021/11/18 22:48:34;;;;;;;25.53;14.47;;;;;;;9.11;100.00;100149.22;714471;1200;113979;-71
2021/11/18 23:03:38;;;;;;;39.40;16.27;;;;;;;9.10;100.00;100160.63;714731;1202;114806;-71
2021/11/18 23:18:43;;;;;;;17.07;10.27;;;;;;;9.12;100.00;100156.93;714539;1199;114140;-72
2021/11/18 23:33:46;;;;;;;13.60;8.00;;;;;;;9.19;100.00;100104.89;715979;1184;114112;-73
2021/11/18 23:48:48;;;;;;;9.98;6.63;;;;;;;9.26;100.00;100102.58;714207;1177;115874;-73
